sensor_id;sensor_type;location;lat;lon;timestamp;P1;durP1;ratioP1;P2;durP2;ratioP2
21927;SDS011;11128;51.096;17.190;2023-02-17T00:03:44;76.90;;;30.67;;
21927;SDS011;11128;51.096;17.190;2023-02-17T00:08:48;75.03;;;28.42;;
21927;SDS011;11128;51.096;17.190;2023-02-17T00:13:50;68.65;;;28.73;;
21927;SDS011;11128;51.096;17.190;2023-02-17T00:18:54;75.25;;;28.13;;
21927;SDS011;11128;51.096;17.190;2023-02-17T00:23:57;68.80;;;26.25;;
21927;SDS011;11128;51.096;17.190;2023-02-17T00:28:59;57.83;;;24.40;;
21927;SDS011;11128;51.096;17.190;2023-02-17T00:34:00;59.53;;;22.23;;
21927;SDS011;11128;51.096;17.190;2023-02-17T00:39:02;62.00;;;23.25;;
21927;SDS011;11128;51.096;17.190;2023-02-17T00:44:04;64.00;;;24.52;;
21927;SDS011;11128;51.096;17.190;2023-02-17T00:49:06;58.65;;;21.58;;
21927;SDS011;11128;51.096;17.190;2023-02-17T00:54:07;56.97;;;22.58;;
21927;SDS011;11128;51.096;17.190;2023-02-17T00:59:08;51.08;;;21.20;;
21927;SDS011;11128;51.096;17.190;2023-02-17T01:04:13;47.63;;;19.85;;
21927;SDS011;11128;51.096;17.190;2023-02-17T01:09:15;51.47;;;19.60;;
21927;SDS011;11128;51.096;17.190;2023-02-17T01:14:16;54.60;;;19.30;;
21927;SDS011;11128;51.096;17.190;2023-02-17T01:19:18;50.80;;;18.85;;
21927;SDS011;11128;51.096;17.190;2023-02-17T01:24:22;48.67;;;18.90;;
21927;SDS011;11128;51.096;17.190;2023-02-17T01:29:23;51.17;;;19.55;;
21927;SDS011;11128;51.096;17.190;2023-02-17T01:34:24;48.47;;;19.25;;
21927;SDS011;11128;51.096;17.190;2023-02-17T01:39:26;44.67;;;18.45;;
21927;SDS011;11128;51.096;17.190;2023-02-17T01:44:30;42.80;;;17.35;;
21927;SDS011;11128;51.096;17.190;2023-02-17T01:49:34;48.05;;;17.85;;
21927;SDS011;11128;51.096;17.190;2023-02-17T01:54:46;43.72;;;18.02;;
21927;SDS011;11128;51.096;17.190;2023-02-17T01:59:59;44.13;;;18.63;;
21927;SDS011;11128;51.096;17.190;2023-02-17T02:05:01;48.08;;;19.67;;
21927;SDS011;11128;51.096;17.190;2023-02-17T02:10:04;44.92;;;19.08;;
21927;SDS011;11128;51.096;17.190;2023-02-17T02:15:08;48.67;;;21.08;;
21927;SDS011;11128;51.096;17.190;2023-02-17T02:36:37;40.42;;;18.67;;
21927;SDS011;11128;51.096;17.190;2023-02-17T02:41:45;43.03;;;18.42;;
21927;SDS011;11128;51.096;17.190;2023-02-17T02:46:57;46.60;;;19.33;;
21927;SDS011;11128;51.096;17.190;2023-02-17T02:58:00;42.13;;;17.85;;
21927;SDS011;11128;51.096;17.190;2023-02-17T03:03:17;43.30;;;19.00;;
21927;SDS011;11128;51.096;17.190;2023-02-17T03:08:31;42.42;;;18.20;;
21927;SDS011;11128;51.096;17.190;2023-02-17T03:13:34;40.75;;;18.55;;
21927;SDS011;11128;51.096;17.190;2023-02-17T03:18:39;49.00;;;20.70;;
21927;SDS011;11128;51.096;17.190;2023-02-17T03:23:40;45.95;;;20.10;;
21927;SDS011;11128;51.096;17.190;2023-02-17T03:28:41;51.33;;;20.85;;
21927;SDS011;11128;51.096;17.190;2023-02-17T03:33:43;47.97;;;21.00;;
21927;SDS011;11128;51.096;17.190;2023-02-17T03:38:44;46.55;;;19.60;;
21927;SDS011;11128;51.096;17.190;2023-02-17T03:43:45;45.05;;;19.20;;
21927;SDS011;11128;51.096;17.190;2023-02-17T03:48:47;45.92;;;19.10;;
21927;SDS011;11128;51.096;17.190;2023-02-17T03:53:48;47.03;;;19.20;;
21927;SDS011;11128;51.096;17.190;2023-02-17T03:58:50;48.17;;;18.55;;
21927;SDS011;11128;51.096;17.190;2023-02-17T04:03:51;47.35;;;18.77;;
21927;SDS011;11128;51.096;17.190;2023-02-17T04:08:52;42.63;;;17.92;;
21927;SDS011;11128;51.096;17.190;2023-02-17T04:13:54;44.58;;;19.25;;
21927;SDS011;11128;51.096;17.190;2023-02-17T04:18:55;44.97;;;19.35;;
21927;SDS011;11128;51.096;17.190;2023-02-17T04:23:58;42.25;;;17.30;;
21927;SDS011;11128;51.096;17.190;2023-02-17T04:29:02;43.08;;;18.58;;
21927;SDS011;11128;51.096;17.190;2023-02-17T04:34:04;44.22;;;19.02;;
21927;SDS011;11128;51.096;17.190;2023-02-17T04:39:05;44.47;;;18.20;;
21927;SDS011;11128;51.096;17.190;2023-02-17T04:44:06;42.38;;;18.33;;
21927;SDS011;11128;51.096;17.190;2023-02-17T04:49:08;47.30;;;19.55;;
21927;SDS011;11128;51.096;17.190;2023-02-17T04:54:12;49.95;;;19.92;;
21927;SDS011;11128;51.096;17.190;2023-02-17T04:59:13;45.67;;;20.63;;
21927;SDS011;11128;51.096;17.190;2023-02-17T05:04:14;47.47;;;19.48;;
21927;SDS011;11128;51.096;17.190;2023-02-17T05:09:16;42.45;;;19.40;;
21927;SDS011;11128;51.096;17.190;2023-02-17T05:14:17;41.13;;;18.38;;
21927;SDS011;11128;51.096;17.190;2023-02-17T05:19:19;43.90;;;19.95;;
21927;SDS011;11128;51.096;17.190;2023-02-17T05:24:20;46.90;;;21.42;;
21927;SDS011;11128;51.096;17.190;2023-02-17T05:29:21;46.30;;;19.77;;
21927;SDS011;11128;51.096;17.190;2023-02-17T05:34:23;41.72;;;18.02;;
21927;SDS011;11128;51.096;17.190;2023-02-17T05:39:25;42.10;;;18.90;;
21927;SDS011;11128;51.096;17.190;2023-02-17T05:44:26;44.20;;;18.52;;
21927;SDS011;11128;51.096;17.190;2023-02-17T05:49:27;43.80;;;18.58;;
21927;SDS011;11128;51.096;17.190;2023-02-17T05:54:29;40.83;;;18.90;;
21927;SDS011;11128;51.096;17.190;2023-02-17T05:59:30;43.92;;;18.73;;
21927;SDS011;11128;51.096;17.190;2023-02-17T06:04:32;45.17;;;19.92;;
21927;SDS011;11128;51.096;17.190;2023-02-17T06:09:33;47.72;;;20.90;;
21927;SDS011;11128;51.096;17.190;2023-02-17T06:14:34;43.80;;;20.10;;
21927;SDS011;11128;51.096;17.190;2023-02-17T06:19:35;43.92;;;19.20;;
21927;SDS011;11128;51.096;17.190;2023-02-17T06:24:37;42.95;;;19.15;;
21927;SDS011;11128;51.096;17.190;2023-02-17T06:29:38;49.00;;;21.48;;
21927;SDS011;11128;51.096;17.190;2023-02-17T06:34:39;45.42;;;19.35;;
21927;SDS011;11128;51.096;17.190;2023-02-17T06:39:41;50.90;;;20.73;;
21927;SDS011;11128;51.096;17.190;2023-02-17T06:44:42;49.03;;;21.40;;
21927;SDS011;11128;51.096;17.190;2023-02-17T06:49:44;52.58;;;22.30;;
21927;SDS011;11128;51.096;17.190;2023-02-17T06:54:45;51.13;;;22.02;;
21927;SDS011;11128;51.096;17.190;2023-02-17T06:59:46;51.33;;;22.42;;
21927;SDS011;11128;51.096;17.190;2023-02-17T07:04:48;46.45;;;20.02;;
21927;SDS011;11128;51.096;17.190;2023-02-17T07:09:49;43.92;;;19.77;;
21927;SDS011;11128;51.096;17.190;2023-02-17T07:14:50;53.42;;;21.63;;
21927;SDS011;11128;51.096;17.190;2023-02-17T07:19:52;47.55;;;22.25;;
21927;SDS011;11128;51.096;17.190;2023-02-17T07:24:53;46.45;;;20.30;;
21927;SDS011;11128;51.096;17.190;2023-02-17T07:29:54;47.70;;;21.52;;
21927;SDS011;11128;51.096;17.190;2023-02-17T07:34:55;49.03;;;21.13;;
21927;SDS011;11128;51.096;17.190;2023-02-17T07:39:57;50.28;;;20.27;;
21927;SDS011;11128;51.096;17.190;2023-02-17T07:44:59;48.42;;;20.75;;
21927;SDS011;11128;51.096;17.190;2023-02-17T07:50:00;48.80;;;20.60;;
21927;SDS011;11128;51.096;17.190;2023-02-17T07:55:01;49.00;;;21.13;;
21927;SDS011;11128;51.096;17.190;2023-02-17T08:00:03;50.35;;;22.20;;
21927;SDS011;11128;51.096;17.190;2023-02-17T08:05:06;42.90;;;19.63;;
21927;SDS011;11128;51.096;17.190;2023-02-17T08:10:09;45.50;;;22.27;;
21927;SDS011;11128;51.096;17.190;2023-02-17T08:15:32;46.78;;;21.20;;
21927;SDS011;11128;51.096;17.190;2023-02-17T08:20:33;48.50;;;20.90;;
21927;SDS011;11128;51.096;17.190;2023-02-17T08:25:35;49.53;;;21.83;;
21927;SDS011;11128;51.096;17.190;2023-02-17T08:30:36;48.30;;;21.65;;
21927;SDS011;11128;51.096;17.190;2023-02-17T08:35:38;54.75;;;23.48;;
21927;SDS011;11128;51.096;17.190;2023-02-17T08:40:39;50.13;;;22.17;;
21927;SDS011;11128;51.096;17.190;2023-02-17T08:45:40;48.78;;;20.90;;
21927;SDS011;11128;51.096;17.190;2023-02-17T08:50:42;45.88;;;20.65;;
21927;SDS011;11128;51.096;17.190;2023-02-17T08:55:46;44.80;;;20.30;;
21927;SDS011;11128;51.096;17.190;2023-02-17T09:00:47;50.17;;;20.67;;
21927;SDS011;11128;51.096;17.190;2023-02-17T09:05:48;43.22;;;20.35;;
21927;SDS011;11128;51.096;17.190;2023-02-17T09:10:53;47.53;;;20.25;;
21927;SDS011;11128;51.096;17.190;2023-02-17T09:15:54;45.72;;;20.15;;
21927;SDS011;11128;51.096;17.190;2023-02-17T09:20:56;40.72;;;20.77;;
21927;SDS011;11128;51.096;17.190;2023-02-17T09:26:02;42.92;;;19.58;;
21927;SDS011;11128;51.096;17.190;2023-02-17T09:36:11;47.47;;;20.00;;
21927;SDS011;11128;51.096;17.190;2023-02-17T09:51:42;39.42;;;18.10;;
21927;SDS011;11128;51.096;17.190;2023-02-17T09:56:51;36.63;;;18.67;;
21927;SDS011;11128;51.096;17.190;2023-02-17T10:01:57;36.78;;;16.77;;
21927;SDS011;11128;51.096;17.190;2023-02-17T10:07:00;36.08;;;16.52;;
21927;SDS011;11128;51.096;17.190;2023-02-17T10:12:09;38.63;;;17.25;;
21927;SDS011;11128;51.096;17.190;2023-02-17T10:17:17;32.45;;;15.65;;
21927;SDS011;11128;51.096;17.190;2023-02-17T10:22:29;31.77;;;16.10;;
21927;SDS011;11128;51.096;17.190;2023-02-17T10:27:36;33.13;;;16.25;;
21927;SDS011;11128;51.096;17.190;2023-02-17T10:33:05;27.92;;;13.95;;
21927;SDS011;11128;51.096;17.190;2023-02-17T10:43:51;28.85;;;14.80;;
21927;SDS011;11128;51.096;17.190;2023-02-17T10:48:54;26.35;;;12.93;;
21927;SDS011;11128;51.096;17.190;2023-02-17T10:53:59;31.65;;;14.30;;
21927;SDS011;11128;51.096;17.190;2023-02-17T10:59:19;28.50;;;15.15;;
21927;SDS011;11128;51.096;17.190;2023-02-17T11:04:23;30.63;;;15.35;;
21927;SDS011;11128;51.096;17.190;2023-02-17T11:09:25;26.45;;;13.10;;
21927;SDS011;11128;51.096;17.190;2023-02-17T11:14:32;20.42;;;11.55;;
21927;SDS011;11128;51.096;17.190;2023-02-17T11:19:36;21.85;;;11.38;;
21927;SDS011;11128;51.096;17.190;2023-02-17T11:24:37;24.73;;;12.07;;
21927;SDS011;11128;51.096;17.190;2023-02-17T11:29:39;25.33;;;11.88;;
21927;SDS011;11128;51.096;17.190;2023-02-17T11:34:43;15.95;;;9.75;;
21927;SDS011;11128;51.096;17.190;2023-02-17T11:39:55;24.65;;;11.10;;
21927;SDS011;11128;51.096;17.190;2023-02-17T11:44:57;22.40;;;10.20;;
21927;SDS011;11128;51.096;17.190;2023-02-17T11:55:21;17.70;;;8.60;;
21927;SDS011;11128;51.096;17.190;2023-02-17T12:00:39;14.68;;;7.57;;
21927;SDS011;11128;51.096;17.190;2023-02-17T12:06:30;15.80;;;7.95;;
21927;SDS011;11128;51.096;17.190;2023-02-17T12:11:48;11.40;;;7.05;;
21927;SDS011;11128;51.096;17.190;2023-02-17T12:33:19;10.32;;;6.38;;
21927;SDS011;11128;51.096;17.190;2023-02-17T12:38:25;11.15;;;5.70;;
21927;SDS011;11128;51.096;17.190;2023-02-17T12:43:41;11.20;;;6.00;;
21927;SDS011;11128;51.096;17.190;2023-02-17T12:49:10;11.07;;;5.93;;
21927;SDS011;11128;51.096;17.190;2023-02-17T12:54:31;13.87;;;7.20;;
21927;SDS011;11128;51.096;17.190;2023-02-17T12:59:45;15.40;;;7.28;;
21927;SDS011;11128;51.096;17.190;2023-02-17T13:04:51;15.80;;;7.50;;
21927;SDS011;11128;51.096;17.190;2023-02-17T13:09:54;12.80;;;7.07;;
21927;SDS011;11128;51.096;17.190;2023-02-17T13:15:01;12.75;;;7.85;;
21927;SDS011;11128;51.096;17.190;2023-02-17T13:25:25;16.88;;;10.25;;
21927;SDS011;11128;51.096;17.190;2023-02-17T13:30:37;20.60;;;11.40;;
21927;SDS011;11128;51.096;17.190;2023-02-17T13:35:44;21.77;;;11.90;;
21927;SDS011;11128;51.096;17.190;2023-02-17T13:40:46;26.45;;;13.07;;
21927;SDS011;11128;51.096;17.190;2023-02-17T13:45:58;24.60;;;12.57;;
21927;SDS011;11128;51.096;17.190;2023-02-17T13:51:03;26.13;;;13.05;;
21927;SDS011;11128;51.096;17.190;2023-02-17T13:56:25;19.92;;;11.32;;
21927;SDS011;11128;51.096;17.190;2023-02-17T14:01:28;23.05;;;11.88;;
21927;SDS011;11128;51.096;17.190;2023-02-17T14:06:31;20.17;;;11.68;;
21927;SDS011;11128;51.096;17.190;2023-02-17T14:11:36;20.85;;;10.68;;
21927;SDS011;11128;51.096;17.190;2023-02-17T14:16:38;24.58;;;11.77;;
21927;SDS011;11128;51.096;17.190;2023-02-17T14:21:42;20.63;;;11.70;;
21927;SDS011;11128;51.096;17.190;2023-02-17T14:27:05;22.90;;;11.30;;
21927;SDS011;11128;51.096;17.190;2023-02-17T14:32:28;15.00;;;9.82;;
21927;SDS011;11128;51.096;17.190;2023-02-17T14:37:34;16.60;;;9.05;;
21927;SDS011;11128;51.096;17.190;2023-02-17T14:42:37;15.95;;;8.95;;
21927;SDS011;11128;51.096;17.190;2023-02-17T14:47:38;17.35;;;9.15;;
21927;SDS011;11128;51.096;17.190;2023-02-17T14:52:44;16.98;;;8.82;;
21927;SDS011;11128;51.096;17.190;2023-02-17T14:57:47;20.80;;;8.95;;
21927;SDS011;11128;51.096;17.190;2023-02-17T15:02:48;16.58;;;9.40;;
21927;SDS011;11128;51.096;17.190;2023-02-17T15:07:51;17.05;;;9.13;;
21927;SDS011;11128;51.096;17.190;2023-02-17T15:12:52;15.23;;;8.63;;
21927;SDS011;11128;51.096;17.190;2023-02-17T15:17:54;12.85;;;7.18;;
21927;SDS011;11128;51.096;17.190;2023-02-17T15:22:56;12.00;;;7.60;;
21927;SDS011;11128;51.096;17.190;2023-02-17T15:27:57;13.20;;;6.75;;
21927;SDS011;11128;51.096;17.190;2023-02-17T15:33:00;12.50;;;6.90;;
21927;SDS011;11128;51.096;17.190;2023-02-17T15:38:02;11.63;;;6.72;;
21927;SDS011;11128;51.096;17.190;2023-02-17T15:43:03;13.80;;;6.72;;
21927;SDS011;11128;51.096;17.190;2023-02-17T15:48:07;13.30;;;6.40;;
21927;SDS011;11128;51.096;17.190;2023-02-17T15:53:12;11.50;;;6.25;;
21927;SDS011;11128;51.096;17.190;2023-02-17T15:58:17;10.48;;;6.10;;
21927;SDS011;11128;51.096;17.190;2023-02-17T16:03:20;9.02;;;5.15;;
21927;SDS011;11128;51.096;17.190;2023-02-17T16:08:22;10.55;;;5.32;;
21927;SDS011;11128;51.096;17.190;2023-02-17T16:13:23;9.15;;;5.30;;
21927;SDS011;11128;51.096;17.190;2023-02-17T16:18:27;10.05;;;5.45;;
21927;SDS011;11128;51.096;17.190;2023-02-17T16:23:28;10.77;;;5.05;;
21927;SDS011;11128;51.096;17.190;2023-02-17T16:28:29;11.50;;;6.22;;
21927;SDS011;11128;51.096;17.190;2023-02-17T16:33:33;9.23;;;5.40;;
21927;SDS011;11128;51.096;17.190;2023-02-17T16:38:34;8.75;;;5.55;;
21927;SDS011;11128;51.096;17.190;2023-02-17T16:43:35;8.40;;;4.55;;
21927;SDS011;11128;51.096;17.190;2023-02-17T16:48:37;8.52;;;5.35;;
21927;SDS011;11128;51.096;17.190;2023-02-17T16:53:42;8.68;;;5.07;;
21927;SDS011;11128;51.096;17.190;2023-02-17T16:58:43;9.00;;;5.03;;
21927;SDS011;11128;51.096;17.190;2023-02-17T17:03:45;10.20;;;5.43;;
21927;SDS011;11128;51.096;17.190;2023-02-17T17:08:46;8.82;;;5.53;;
21927;SDS011;11128;51.096;17.190;2023-02-17T17:13:48;12.98;;;6.40;;
21927;SDS011;11128;51.096;17.190;2023-02-17T17:18:50;12.95;;;7.03;;
21927;SDS011;11128;51.096;17.190;2023-02-17T17:23:51;10.25;;;6.22;;
21927;SDS011;11128;51.096;17.190;2023-02-17T17:28:53;14.52;;;7.30;;
21927;SDS011;11128;51.096;17.190;2023-02-17T17:33:54;11.50;;;7.55;;
21927;SDS011;11128;51.096;17.190;2023-02-17T17:38:56;11.32;;;6.97;;
21927;SDS011;11128;51.096;17.190;2023-02-17T17:43:58;14.98;;;8.88;;
21927;SDS011;11128;51.096;17.190;2023-02-17T17:49:00;13.15;;;8.43;;
21927;SDS011;11128;51.096;17.190;2023-02-17T17:54:04;13.48;;;9.02;;
21927;SDS011;11128;51.096;17.190;2023-02-17T17:59:06;15.65;;;9.23;;
21927;SDS011;11128;51.096;17.190;2023-02-17T18:04:08;14.85;;;9.18;;
21927;SDS011;11128;51.096;17.190;2023-02-17T18:09:13;15.13;;;8.80;;
21927;SDS011;11128;51.096;17.190;2023-02-17T18:14:18;18.95;;;9.63;;
21927;SDS011;11128;51.096;17.190;2023-02-17T18:19:19;15.20;;;9.32;;
21927;SDS011;11128;51.096;17.190;2023-02-17T18:24:21;16.80;;;9.60;;
21927;SDS011;11128;51.096;17.190;2023-02-17T18:29:22;14.48;;;7.93;;
21927;SDS011;11128;51.096;17.190;2023-02-17T18:34:24;14.43;;;8.73;;
21927;SDS011;11128;51.096;17.190;2023-02-17T18:39:26;17.42;;;9.40;;
21927;SDS011;11128;51.096;17.190;2023-02-17T18:44:28;16.58;;;8.68;;
21927;SDS011;11128;51.096;17.190;2023-02-17T18:49:29;18.42;;;8.43;;
21927;SDS011;11128;51.096;17.190;2023-02-17T18:54:30;17.75;;;9.15;;
21927;SDS011;11128;51.096;17.190;2023-02-17T18:59:33;14.15;;;8.32;;
21927;SDS011;11128;51.096;17.190;2023-02-17T19:04:35;13.95;;;7.88;;
21927;SDS011;11128;51.096;17.190;2023-02-17T19:09:39;13.93;;;7.10;;
21927;SDS011;11128;51.096;17.190;2023-02-17T19:14:45;11.98;;;7.03;;
21927;SDS011;11128;51.096;17.190;2023-02-17T19:19:48;11.00;;;6.22;;
21927;SDS011;11128;51.096;17.190;2023-02-17T19:24:51;9.93;;;4.72;;
21927;SDS011;11128;51.096;17.190;2023-02-17T19:29:53;8.13;;;5.55;;
21927;SDS011;11128;51.096;17.190;2023-02-17T19:34:55;8.45;;;4.72;;
21927;SDS011;11128;51.096;17.190;2023-02-17T19:39:56;3.67;;;3.15;;
21927;SDS011;11128;51.096;17.190;2023-02-17T19:44:58;4.45;;;3.45;;
21927;SDS011;11128;51.096;17.190;2023-02-17T19:49:59;3.70;;;2.60;;
21927;SDS011;11128;51.096;17.190;2023-02-17T19:55:06;3.75;;;2.63;;
21927;SDS011;11128;51.096;17.190;2023-02-17T20:00:09;3.92;;;3.33;;
21927;SDS011;11128;51.096;17.190;2023-02-17T20:05:11;3.70;;;2.88;;
21927;SDS011;11128;51.096;17.190;2023-02-17T20:10:13;3.22;;;2.50;;
21927;SDS011;11128;51.096;17.190;2023-02-17T20:15:14;4.18;;;3.60;;
21927;SDS011;11128;51.096;17.190;2023-02-17T20:20:16;4.95;;;3.22;;
21927;SDS011;11128;51.096;17.190;2023-02-17T20:25:18;4.68;;;2.33;;
21927;SDS011;11128;51.096;17.190;2023-02-17T20:48:52;6.55;;;3.10;;
21927;SDS011;11128;51.096;17.190;2023-02-17T20:53:55;6.13;;;3.70;;
21927;SDS011;11128;51.096;17.190;2023-02-17T20:58:56;4.72;;;3.17;;
21927;SDS011;11128;51.096;17.190;2023-02-17T21:03:58;5.18;;;3.75;;
21927;SDS011;11128;51.096;17.190;2023-02-17T21:09:02;5.40;;;2.92;;
21927;SDS011;11128;51.096;17.190;2023-02-17T21:14:06;5.53;;;3.03;;
21927;SDS011;11128;51.096;17.190;2023-02-17T21:19:07;4.22;;;2.75;;
21927;SDS011;11128;51.096;17.190;2023-02-17T21:24:09;4.22;;;2.75;;
21927;SDS011;11128;51.096;17.190;2023-02-17T21:29:10;5.82;;;3.20;;
21927;SDS011;11128;51.096;17.190;2023-02-17T21:34:12;5.85;;;3.10;;
21927;SDS011;11128;51.096;17.190;2023-02-17T21:39:13;6.13;;;3.08;;
21927;SDS011;11128;51.096;17.190;2023-02-17T21:44:15;6.22;;;3.47;;
21927;SDS011;11128;51.096;17.190;2023-02-17T21:49:35;7.15;;;3.63;;
21927;SDS011;11128;51.096;17.190;2023-02-17T21:54:36;6.53;;;3.65;;
21927;SDS011;11128;51.096;17.190;2023-02-17T21:59:38;3.88;;;2.40;;
21927;SDS011;11128;51.096;17.190;2023-02-17T22:04:39;3.17;;;2.10;;
21927;SDS011;11128;51.096;17.190;2023-02-17T22:09:41;5.10;;;2.83;;
21927;SDS011;11128;51.096;17.190;2023-02-17T22:14:42;4.25;;;2.85;;
21927;SDS011;11128;51.096;17.190;2023-02-17T22:19:44;6.15;;;2.70;;
21927;SDS011;11128;51.096;17.190;2023-02-17T22:24:46;2.38;;;1.60;;
21927;SDS011;11128;51.096;17.190;2023-02-17T22:29:47;1.65;;;0.98;;
21927;SDS011;11128;51.096;17.190;2023-02-17T22:34:49;1.60;;;1.17;;
21927;SDS011;11128;51.096;17.190;2023-02-17T22:39:53;3.15;;;1.20;;
21927;SDS011;11128;51.096;17.190;2023-02-17T22:44:55;3.30;;;0.98;;
21927;SDS011;11128;51.096;17.190;2023-02-17T22:49:57;2.63;;;1.25;;
21927;SDS011;11128;51.096;17.190;2023-02-17T22:54:58;4.28;;;1.13;;
21927;SDS011;11128;51.096;17.190;2023-02-17T22:59:59;4.28;;;1.23;;
21927;SDS011;11128;51.096;17.190;2023-02-17T23:05:01;3.47;;;1.10;;
21927;SDS011;11128;51.096;17.190;2023-02-17T23:10:02;2.15;;;1.17;;
21927;SDS011;11128;51.096;17.190;2023-02-17T23:15:05;4.15;;;1.15;;
21927;SDS011;11128;51.096;17.190;2023-02-17T23:20:06;4.63;;;1.02;;
21927;SDS011;11128;51.096;17.190;2023-02-17T23:25:10;2.70;;;1.10;;
21927;SDS011;11128;51.096;17.190;2023-02-17T23:30:16;1.73;;;0.98;;
21927;SDS011;11128;51.096;17.190;2023-02-17T23:35:19;1.23;;;0.70;;
21927;SDS011;11128;51.096;17.190;2023-02-17T23:40:21;2.95;;;0.63;;
21927;SDS011;11128;51.096;17.190;2023-02-17T23:45:22;1.38;;;0.88;;
21927;SDS011;11128;51.096;17.190;2023-02-17T23:50:23;1.95;;;1.00;;
21927;SDS011;11128;51.096;17.190;2023-02-17T23:55:25;2.55;;;1.13;;
